sensor_id;sensor_type;location;lat;lon;timestamp;P1;durP1;ratioP1;P2;durP2;ratioP2
65463;SDS011;52063;45.110;9.870;2022-09-13T00:01:24;3.77;;;3.00;;
65463;SDS011;52063;45.110;9.870;2022-09-13T00:03:50;5.78;;;2.83;;
65463;SDS011;52063;45.110;9.870;2022-09-13T00:06:17;5.27;;;2.70;;
65463;SDS011;52063;45.110;9.870;2022-09-13T00:08:43;5.85;;;2.78;;
65463;SDS011;52063;45.110;9.870;2022-09-13T00:11:15;3.47;;;3.10;;
65463;SDS011;52063;45.110;9.870;2022-09-13T00:13:41;6.97;;;3.35;;
65463;SDS011;52063;45.110;9.870;2022-09-13T00:16:09;5.40;;;3.20;;
65463;SDS011;52063;45.110;9.870;2022-09-13T00:18:35;5.85;;;2.70;;
65463;SDS011;52063;45.110;9.870;2022-09-13T00:21:04;4.47;;;3.80;;
65463;SDS011;52063;45.110;9.870;2022-09-13T00:23:29;4.85;;;3.33;;
65463;SDS011;52063;45.110;9.870;2022-09-13T00:26:05;5.37;;;4.03;;
65463;SDS011;52063;45.110;9.870;2022-09-13T00:28:31;4.97;;;2.97;;
65463;SDS011;52063;45.110;9.870;2022-09-13T00:31:03;6.43;;;3.63;;
65463;SDS011;52063;45.110;9.870;2022-09-13T00:33:30;3.58;;;3.28;;
65463;SDS011;52063;45.110;9.870;2022-09-13T00:35:55;6.17;;;3.27;;
65463;SDS011;52063;45.110;9.870;2022-09-13T00:38:21;8.20;;;4.20;;
65463;SDS011;52063;45.110;9.870;2022-09-13T00:40:46;4.67;;;3.60;;
65463;SDS011;52063;45.110;9.870;2022-09-13T00:43:16;5.90;;;3.70;;
65463;SDS011;52063;45.110;9.870;2022-09-13T00:45:41;5.70;;;3.88;;
65463;SDS011;52063;45.110;9.870;2022-09-13T00:48:07;7.47;;;4.07;;
65463;SDS011;52063;45.110;9.870;2022-09-13T00:53:04;5.20;;;3.63;;
65463;SDS011;52063;45.110;9.870;2022-09-13T00:57:57;5.40;;;3.97;;
65463;SDS011;52063;45.110;9.870;2022-09-13T01:00:24;5.13;;;3.90;;
65463;SDS011;52063;45.110;9.870;2022-09-13T01:02:51;4.60;;;4.13;;
65463;SDS011;52063;45.110;9.870;2022-09-13T01:05:19;5.80;;;3.80;;
65463;SDS011;52063;45.110;9.870;2022-09-13T01:07:45;6.68;;;4.13;;
65463;SDS011;52063;45.110;9.870;2022-09-13T01:10:10;8.03;;;3.97;;
65463;SDS011;52063;45.110;9.870;2022-09-13T01:12:38;11.35;;;4.20;;
65463;SDS011;52063;45.110;9.870;2022-09-13T01:15:08;7.00;;;5.03;;
65463;SDS011;52063;45.110;9.870;2022-09-13T01:17:33;5.80;;;4.82;;
65463;SDS011;52063;45.110;9.870;2022-09-13T01:19:59;7.80;;;5.97;;
65463;SDS011;52063;45.110;9.870;2022-09-13T01:35:39;7.68;;;5.03;;
65463;SDS011;52063;45.110;9.870;2022-09-13T01:51:00;4.67;;;3.37;;
65463;SDS011;52063;45.110;9.870;2022-09-13T01:53:30;5.93;;;3.03;;
65463;SDS011;52063;45.110;9.870;2022-09-13T01:56:01;5.97;;;3.70;;
65463;SDS011;52063;45.110;9.870;2022-09-13T02:01:03;6.13;;;4.22;;
65463;SDS011;52063;45.110;9.870;2022-09-13T02:03:38;10.17;;;4.67;;
65463;SDS011;52063;45.110;9.870;2022-09-13T02:06:10;10.82;;;5.43;;
65463;SDS011;52063;45.110;9.870;2022-09-13T02:08:41;9.65;;;5.68;;
65463;SDS011;52063;45.110;9.870;2022-09-13T02:11:11;9.38;;;6.35;;
65463;SDS011;52063;45.110;9.870;2022-09-13T02:13:41;8.73;;;6.10;;
65463;SDS011;52063;45.110;9.870;2022-09-13T02:16:16;7.20;;;6.10;;
65463;SDS011;52063;45.110;9.870;2022-09-13T02:18:43;6.82;;;6.03;;
65463;SDS011;52063;45.110;9.870;2022-09-13T02:21:16;8.20;;;5.40;;
65463;SDS011;52063;45.110;9.870;2022-09-13T02:23:53;8.90;;;5.97;;
65463;SDS011;52063;45.110;9.870;2022-09-13T02:26:20;6.95;;;6.07;;
65463;SDS011;52063;45.110;9.870;2022-09-13T02:28:48;6.00;;;5.40;;
65463;SDS011;52063;45.110;9.870;2022-09-13T02:31:16;7.45;;;6.00;;
65463;SDS011;52063;45.110;9.870;2022-09-13T02:33:47;8.25;;;5.68;;
65463;SDS011;52063;45.110;9.870;2022-09-13T02:36:18;7.38;;;5.22;;
65463;SDS011;52063;45.110;9.870;2022-09-13T02:41:18;6.63;;;5.67;;
65463;SDS011;52063;45.110;9.870;2022-09-13T02:43:47;10.60;;;5.97;;
65463;SDS011;52063;45.110;9.870;2022-09-13T03:01:32;8.38;;;7.28;;
65463;SDS011;52063;45.110;9.870;2022-09-13T03:04:00;11.85;;;7.35;;
65463;SDS011;52063;45.110;9.870;2022-09-13T03:06:27;15.02;;;6.45;;
65463;SDS011;52063;45.110;9.870;2022-09-13T03:08:56;9.17;;;6.40;;
65463;SDS011;52063;45.110;9.870;2022-09-13T03:19:06;10.63;;;6.95;;
65463;SDS011;52063;45.110;9.870;2022-09-13T03:34:12;10.60;;;8.35;;
65463;SDS011;52063;45.110;9.870;2022-09-13T03:36:52;12.13;;;9.38;;
65463;SDS011;52063;45.110;9.870;2022-09-13T03:39:36;9.60;;;8.38;;
65463;SDS011;52063;45.110;9.870;2022-09-13T03:42:15;8.30;;;7.38;;
65463;SDS011;52063;45.110;9.870;2022-09-13T03:44:43;9.33;;;7.30;;
65463;SDS011;52063;45.110;9.870;2022-09-13T03:47:10;10.52;;;7.93;;
65463;SDS011;52063;45.110;9.870;2022-09-13T03:49:36;11.30;;;6.80;;
65463;SDS011;52063;45.110;9.870;2022-09-13T03:52:02;10.98;;;6.70;;
65463;SDS011;52063;45.110;9.870;2022-09-13T03:54:28;9.40;;;7.20;;
65463;SDS011;52063;45.110;9.870;2022-09-13T03:57:11;15.32;;;7.70;;
65463;SDS011;52063;45.110;9.870;2022-09-13T03:59:38;7.33;;;5.70;;
65463;SDS011;52063;45.110;9.870;2022-09-13T04:02:06;7.28;;;4.88;;
65463;SDS011;52063;45.110;9.870;2022-09-13T04:04:36;7.68;;;5.18;;
65463;SDS011;52063;45.110;9.870;2022-09-13T04:07:01;7.38;;;5.60;;
65463;SDS011;52063;45.110;9.870;2022-09-13T04:09:28;7.40;;;6.70;;
65463;SDS011;52063;45.110;9.870;2022-09-13T04:11:54;7.75;;;6.07;;
65463;SDS011;52063;45.110;9.870;2022-09-13T04:14:19;6.30;;;5.20;;
65463;SDS011;52063;45.110;9.870;2022-09-13T04:16:44;7.67;;;5.40;;
65463;SDS011;52063;45.110;9.870;2022-09-13T04:19:10;7.25;;;5.75;;
65463;SDS011;52063;45.110;9.870;2022-09-13T04:21:35;6.93;;;6.30;;
65463;SDS011;52063;45.110;9.870;2022-09-13T04:24:02;7.80;;;6.05;;
65463;SDS011;52063;45.110;9.870;2022-09-13T04:26:27;10.33;;;6.90;;
65463;SDS011;52063;45.110;9.870;2022-09-13T04:28:53;8.27;;;7.33;;
65463;SDS011;52063;45.110;9.870;2022-09-13T04:31:18;11.30;;;8.73;;
65463;SDS011;52063;45.110;9.870;2022-09-13T04:33:43;9.45;;;8.32;;
65463;SDS011;52063;45.110;9.870;2022-09-13T04:36:09;8.40;;;7.60;;
65463;SDS011;52063;45.110;9.870;2022-09-13T04:38:34;11.90;;;10.57;;
65463;SDS011;52063;45.110;9.870;2022-09-13T04:41:01;7.95;;;7.07;;
65463;SDS011;52063;45.110;9.870;2022-09-13T04:43:26;8.80;;;7.20;;
65463;SDS011;52063;45.110;9.870;2022-09-13T04:45:52;14.60;;;8.93;;
65463;SDS011;52063;45.110;9.870;2022-09-13T04:48:17;10.25;;;7.47;;
65463;SDS011;52063;45.110;9.870;2022-09-13T04:50:43;10.23;;;7.40;;
65463;SDS011;52063;45.110;9.870;2022-09-13T04:53:09;9.82;;;7.65;;
65463;SDS011;52063;45.110;9.870;2022-09-13T04:55:34;9.10;;;7.17;;
65463;SDS011;52063;45.110;9.870;2022-09-13T04:58:01;13.02;;;7.55;;
65463;SDS011;52063;45.110;9.870;2022-09-13T05:00:26;8.43;;;7.47;;
65463;SDS011;52063;45.110;9.870;2022-09-13T05:02:55;11.65;;;7.70;;
65463;SDS011;52063;45.110;9.870;2022-09-13T05:05:21;9.93;;;7.85;;
65463;SDS011;52063;45.110;9.870;2022-09-13T05:07:48;9.27;;;7.40;;
65463;SDS011;52063;45.110;9.870;2022-09-13T05:10:14;10.13;;;7.13;;
65463;SDS011;52063;45.110;9.870;2022-09-13T05:12:40;7.73;;;5.87;;
65463;SDS011;52063;45.110;9.870;2022-09-13T05:15:05;10.17;;;6.37;;
65463;SDS011;52063;45.110;9.870;2022-09-13T05:17:31;9.73;;;5.80;;
65463;SDS011;52063;45.110;9.870;2022-09-13T05:19:56;8.47;;;6.47;;
65463;SDS011;52063;45.110;9.870;2022-09-13T05:22:22;9.65;;;8.15;;
65463;SDS011;52063;45.110;9.870;2022-09-13T05:24:48;13.73;;;9.30;;
65463;SDS011;52063;45.110;9.870;2022-09-13T05:27:13;12.17;;;8.63;;
65463;SDS011;52063;45.110;9.870;2022-09-13T05:29:38;14.93;;;9.77;;
65463;SDS011;52063;45.110;9.870;2022-09-13T05:32:04;13.70;;;12.27;;
65463;SDS011;52063;45.110;9.870;2022-09-13T05:34:29;13.68;;;11.75;;
65463;SDS011;52063;45.110;9.870;2022-09-13T05:36:54;11.63;;;10.00;;
65463;SDS011;52063;45.110;9.870;2022-09-13T05:39:20;19.17;;;12.63;;
65463;SDS011;52063;45.110;9.870;2022-09-13T05:41:46;16.25;;;11.60;;
65463;SDS011;52063;45.110;9.870;2022-09-13T05:44:11;13.00;;;11.27;;
65463;SDS011;52063;45.110;9.870;2022-09-13T05:46:37;13.90;;;10.03;;
65463;SDS011;52063;45.110;9.870;2022-09-13T05:49:02;14.68;;;10.68;;
65463;SDS011;52063;45.110;9.870;2022-09-13T05:51:28;12.43;;;10.57;;
65463;SDS011;52063;45.110;9.870;2022-09-13T05:53:53;13.13;;;10.30;;
65463;SDS011;52063;45.110;9.870;2022-09-13T05:56:19;11.48;;;10.13;;
65463;SDS011;52063;45.110;9.870;2022-09-13T05:58:46;13.17;;;11.37;;
65463;SDS011;52063;45.110;9.870;2022-09-13T06:01:18;14.00;;;11.43;;
65463;SDS011;52063;45.110;9.870;2022-09-13T06:03:47;11.68;;;10.40;;
65463;SDS011;52063;45.110;9.870;2022-09-13T06:06:13;13.38;;;11.02;;
65463;SDS011;52063;45.110;9.870;2022-09-13T06:08:39;16.90;;;11.20;;
65463;SDS011;52063;45.110;9.870;2022-09-13T06:11:06;11.97;;;10.20;;
65463;SDS011;52063;45.110;9.870;2022-09-13T06:13:31;14.43;;;11.20;;
65463;SDS011;52063;45.110;9.870;2022-09-13T06:15:58;14.65;;;10.45;;
65463;SDS011;52063;45.110;9.870;2022-09-13T06:18:24;14.33;;;10.70;;
65463;SDS011;52063;45.110;9.870;2022-09-13T06:20:50;15.05;;;11.15;;
65463;SDS011;52063;45.110;9.870;2022-09-13T06:23:15;13.07;;;11.07;;
65463;SDS011;52063;45.110;9.870;2022-09-13T06:25:41;14.63;;;10.90;;
65463;SDS011;52063;45.110;9.870;2022-09-13T06:28:06;16.17;;;12.13;;
65463;SDS011;52063;45.110;9.870;2022-09-13T06:30:32;17.88;;;12.02;;
65463;SDS011;52063;45.110;9.870;2022-09-13T06:32:58;16.10;;;11.50;;
65463;SDS011;52063;45.110;9.870;2022-09-13T06:35:23;18.00;;;12.55;;
65463;SDS011;52063;45.110;9.870;2022-09-13T06:37:49;18.40;;;11.97;;
65463;SDS011;52063;45.110;9.870;2022-09-13T06:40:14;15.33;;;12.27;;
65463;SDS011;52063;45.110;9.870;2022-09-13T06:42:41;13.38;;;11.65;;
65463;SDS011;52063;45.110;9.870;2022-09-13T06:45:06;17.87;;;13.07;;
65463;SDS011;52063;45.110;9.870;2022-09-13T06:47:31;15.15;;;11.57;;
65463;SDS011;52063;45.110;9.870;2022-09-13T06:49:57;15.13;;;12.00;;
65463;SDS011;52063;45.110;9.870;2022-09-13T06:52:22;21.03;;;13.07;;
65463;SDS011;52063;45.110;9.870;2022-09-13T06:54:48;20.95;;;16.95;;
65463;SDS011;52063;45.110;9.870;2022-09-13T06:57:13;31.40;;;19.20;;
65463;SDS011;52063;45.110;9.870;2022-09-13T06:59:39;26.70;;;19.57;;
65463;SDS011;52063;45.110;9.870;2022-09-13T07:02:04;29.57;;;18.90;;
65463;SDS011;52063;45.110;9.870;2022-09-13T07:04:29;22.90;;;18.03;;
65463;SDS011;52063;45.110;9.870;2022-09-13T07:06:55;26.38;;;19.55;;
65463;SDS011;52063;45.110;9.870;2022-09-13T07:09:21;28.77;;;19.10;;
65463;SDS011;52063;45.110;9.870;2022-09-13T07:11:47;25.23;;;19.10;;
65463;SDS011;52063;45.110;9.870;2022-09-13T07:14:14;27.13;;;19.10;;
65463;SDS011;52063;45.110;9.870;2022-09-13T07:16:40;30.30;;;19.70;;
65463;SDS011;52063;45.110;9.870;2022-09-13T07:19:06;24.00;;;18.40;;
65463;SDS011;52063;45.110;9.870;2022-09-13T07:21:33;24.52;;;19.35;;
65463;SDS011;52063;45.110;9.870;2022-09-13T07:23:58;24.95;;;19.73;;
65463;SDS011;52063;45.110;9.870;2022-09-13T07:26:24;27.00;;;18.87;;
65463;SDS011;52063;45.110;9.870;2022-09-13T07:28:52;26.17;;;20.38;;
65463;SDS011;52063;45.110;9.870;2022-09-13T07:31:19;22.80;;;20.27;;
65463;SDS011;52063;45.110;9.870;2022-09-13T07:33:46;25.00;;;21.13;;
65463;SDS011;52063;45.110;9.870;2022-09-13T07:36:12;26.75;;;21.77;;
65463;SDS011;52063;45.110;9.870;2022-09-13T07:38:39;28.33;;;22.73;;
65463;SDS011;52063;45.110;9.870;2022-09-13T07:41:05;25.38;;;21.42;;
65463;SDS011;52063;45.110;9.870;2022-09-13T07:43:33;27.87;;;21.70;;
65463;SDS011;52063;45.110;9.870;2022-09-13T07:46:05;28.55;;;23.27;;
65463;SDS011;52063;45.110;9.870;2022-09-13T07:48:32;32.97;;;23.60;;
65463;SDS011;52063;45.110;9.870;2022-09-13T07:50:58;29.10;;;23.98;;
65463;SDS011;52063;45.110;9.870;2022-09-13T07:53:25;29.17;;;24.23;;
65463;SDS011;52063;45.110;9.870;2022-09-13T07:55:50;30.03;;;23.87;;
65463;SDS011;52063;45.110;9.870;2022-09-13T07:58:16;32.10;;;23.90;;
65463;SDS011;52063;45.110;9.870;2022-09-13T08:00:41;30.97;;;24.33;;
65463;SDS011;52063;45.110;9.870;2022-09-13T08:03:07;27.67;;;24.17;;
65463;SDS011;52063;45.110;9.870;2022-09-13T08:05:37;32.63;;;24.63;;
65463;SDS011;52063;45.110;9.870;2022-09-13T08:08:02;33.85;;;24.00;;
65463;SDS011;52063;45.110;9.870;2022-09-13T08:10:28;31.43;;;23.37;;
65463;SDS011;52063;45.110;9.870;2022-09-13T08:12:53;27.13;;;22.90;;
65463;SDS011;52063;45.110;9.870;2022-09-13T08:15:18;30.63;;;22.17;;
65463;SDS011;52063;45.110;9.870;2022-09-13T08:17:44;33.40;;;22.90;;
65463;SDS011;52063;45.110;9.870;2022-09-13T08:20:09;27.80;;;21.23;;
65463;SDS011;52063;45.110;9.870;2022-09-13T08:22:34;27.60;;;21.80;;
65463;SDS011;52063;45.110;9.870;2022-09-13T08:25:00;35.23;;;21.23;;
65463;SDS011;52063;45.110;9.870;2022-09-13T08:27:26;27.73;;;20.38;;
65463;SDS011;52063;45.110;9.870;2022-09-13T08:29:52;26.90;;;19.83;;
65463;SDS011;52063;45.110;9.870;2022-09-13T08:32:17;24.40;;;19.80;;
65463;SDS011;52063;45.110;9.870;2022-09-13T08:34:42;29.90;;;19.03;;
65463;SDS011;52063;45.110;9.870;2022-09-13T08:37:08;25.17;;;19.33;;
65463;SDS011;52063;45.110;9.870;2022-09-13T08:39:33;24.45;;;17.75;;
65463;SDS011;52063;45.110;9.870;2022-09-13T08:42:42;23.20;;;18.80;;
65463;SDS011;52063;45.110;9.870;2022-09-13T08:44:48;23.70;;;18.58;;
65463;SDS011;52063;45.110;9.870;2022-09-13T08:50:04;32.03;;;17.85;;
65463;SDS011;52063;45.110;9.870;2022-09-13T08:55:18;28.35;;;17.80;;
65463;SDS011;52063;45.110;9.870;2022-09-13T09:00:36;24.00;;;18.57;;
65463;SDS011;52063;45.110;9.870;2022-09-13T09:03:18;29.92;;;19.63;;
65463;SDS011;52063;45.110;9.870;2022-09-13T09:05:47;27.35;;;17.90;;
65463;SDS011;52063;45.110;9.870;2022-09-13T09:08:20;22.83;;;17.63;;
65463;SDS011;52063;45.110;9.870;2022-09-13T09:10:48;34.40;;;19.00;;
65463;SDS011;52063;45.110;9.870;2022-09-13T09:13:24;24.77;;;17.50;;
65463;SDS011;52063;45.110;9.870;2022-09-13T09:15:52;24.88;;;17.48;;
65463;SDS011;52063;45.110;9.870;2022-09-13T09:18:32;23.92;;;17.45;;
65463;SDS011;52063;45.110;9.870;2022-09-13T09:21:00;29.00;;;19.40;;
65463;SDS011;52063;45.110;9.870;2022-09-13T09:23:36;28.73;;;17.63;;
65463;SDS011;52063;45.110;9.870;2022-09-13T09:26:19;25.37;;;17.70;;
65463;SDS011;52063;45.110;9.870;2022-09-13T09:28:49;25.83;;;18.17;;
65463;SDS011;52063;45.110;9.870;2022-09-13T09:37:06;19.63;;;15.73;;
65463;SDS011;52063;45.110;9.870;2022-09-13T09:39:32;26.60;;;17.13;;
65463;SDS011;52063;45.110;9.870;2022-09-13T09:42:03;27.63;;;17.60;;
65463;SDS011;52063;45.110;9.870;2022-09-13T09:44:29;26.27;;;17.27;;
65463;SDS011;52063;45.110;9.870;2022-09-13T09:47:11;30.50;;;16.15;;
65463;SDS011;52063;45.110;9.870;2022-09-13T09:49:38;27.92;;;18.02;;
65463;SDS011;52063;45.110;9.870;2022-09-13T09:52:28;22.93;;;15.73;;
65463;SDS011;52063;45.110;9.870;2022-09-13T09:54:55;22.58;;;15.52;;
65463;SDS011;52063;45.110;9.870;2022-09-13T10:00:10;22.77;;;18.42;;
65463;SDS011;52063;45.110;9.870;2022-09-13T10:02:36;25.08;;;17.42;;
65463;SDS011;52063;45.110;9.870;2022-09-13T10:05:07;26.03;;;16.67;;
65463;SDS011;52063;45.110;9.870;2022-09-13T10:07:32;25.05;;;16.63;;
65463;SDS011;52063;45.110;9.870;2022-09-13T10:10:01;24.80;;;16.88;;
65463;SDS011;52063;45.110;9.870;2022-09-13T10:12:30;20.93;;;15.10;;
65463;SDS011;52063;45.110;9.870;2022-09-13T10:15:14;19.65;;;14.85;;
65463;SDS011;52063;45.110;9.870;2022-09-13T10:17:41;17.83;;;13.85;;
65463;SDS011;52063;45.110;9.870;2022-09-13T10:22:38;25.65;;;14.32;;
65463;SDS011;52063;45.110;9.870;2022-09-13T10:25:22;26.07;;;15.93;;
65463;SDS011;52063;45.110;9.870;2022-09-13T10:27:49;27.03;;;14.60;;
65463;SDS011;52063;45.110;9.870;2022-09-13T10:31:02;27.75;;;14.88;;
65463;SDS011;52063;45.110;9.870;2022-09-13T10:33:01;19.85;;;13.88;;
65463;SDS011;52063;45.110;9.870;2022-09-13T10:35:28;22.38;;;14.77;;
65463;SDS011;52063;45.110;9.870;2022-09-13T10:37:53;20.30;;;14.57;;
65463;SDS011;52063;45.110;9.870;2022-09-13T10:40:28;24.15;;;15.50;;
65463;SDS011;52063;45.110;9.870;2022-09-13T10:42:57;21.97;;;13.67;;
65463;SDS011;52063;45.110;9.870;2022-09-13T10:45:24;19.95;;;13.10;;
65463;SDS011;52063;45.110;9.870;2022-09-13T10:47:54;19.10;;;11.43;;
65463;SDS011;52063;45.110;9.870;2022-09-13T10:50:27;19.27;;;11.57;;
65463;SDS011;52063;45.110;9.870;2022-09-13T10:52:53;19.08;;;11.40;;
65463;SDS011;52063;45.110;9.870;2022-09-13T11:00:13;12.33;;;8.77;;
65463;SDS011;52063;45.110;9.870;2022-09-13T11:05:26;10.15;;;6.00;;
65463;SDS011;52063;45.110;9.870;2022-09-13T11:08:09;8.85;;;5.53;;
65463;SDS011;52063;45.110;9.870;2022-09-13T11:13:42;7.57;;;4.67;;
65463;SDS011;52063;45.110;9.870;2022-09-13T11:21:08;9.27;;;5.23;;
65463;SDS011;52063;45.110;9.870;2022-09-13T11:28:32;11.87;;;5.10;;
65463;SDS011;52063;45.110;9.870;2022-09-13T11:39:37;11.80;;;6.43;;
65463;SDS011;52063;45.110;9.870;2022-09-13T11:57:30;8.57;;;4.97;;
65463;SDS011;52063;45.110;9.870;2022-09-13T11:59:58;11.45;;;5.35;;
65463;SDS011;52063;45.110;9.870;2022-09-13T12:02:26;7.70;;;4.75;;
65463;SDS011;52063;45.110;9.870;2022-09-13T12:04:55;11.90;;;4.93;;
65463;SDS011;52063;45.110;9.870;2022-09-13T12:07:34;11.97;;;4.73;;
65463;SDS011;52063;45.110;9.870;2022-09-13T12:10:05;7.65;;;4.82;;
65463;SDS011;52063;45.110;9.870;2022-09-13T12:12:32;14.00;;;4.53;;
65463;SDS011;52063;45.110;9.870;2022-09-13T12:15:05;9.38;;;4.68;;
65463;SDS011;52063;45.110;9.870;2022-09-13T12:17:36;8.02;;;4.13;;
65463;SDS011;52063;45.110;9.870;2022-09-13T12:20:04;10.07;;;4.30;;
65463;SDS011;52063;45.110;9.870;2022-09-13T12:22:32;8.18;;;3.97;;
65463;SDS011;52063;45.110;9.870;2022-09-13T12:24:58;11.93;;;4.70;;
65463;SDS011;52063;45.110;9.870;2022-09-13T12:27:30;7.70;;;4.43;;
65463;SDS011;52063;45.110;9.870;2022-09-13T12:30:04;11.95;;;4.85;;
65463;SDS011;52063;45.110;9.870;2022-09-13T12:32:30;10.57;;;5.40;;
65463;SDS011;52063;45.110;9.870;2022-09-13T12:35:03;12.30;;;4.60;;
65463;SDS011;52063;45.110;9.870;2022-09-13T12:42:56;10.90;;;4.10;;
65463;SDS011;52063;45.110;9.870;2022-09-13T13:03:29;7.80;;;2.28;;
65463;SDS011;52063;45.110;9.870;2022-09-13T13:06:05;7.85;;;2.50;;
65463;SDS011;52063;45.110;9.870;2022-09-13T13:08:31;6.32;;;2.22;;
65463;SDS011;52063;45.110;9.870;2022-09-13T13:11:02;9.77;;;2.90;;
65463;SDS011;52063;45.110;9.870;2022-09-13T13:13:38;6.60;;;2.50;;
65463;SDS011;52063;45.110;9.870;2022-09-13T13:18:30;4.87;;;2.23;;
65463;SDS011;52063;45.110;9.870;2022-09-13T13:23:31;5.93;;;2.10;;
65463;SDS011;52063;45.110;9.870;2022-09-13T13:31:55;4.67;;;2.23;;
65463;SDS011;52063;45.110;9.870;2022-09-13T13:39:00;6.00;;;2.05;;
65463;SDS011;52063;45.110;9.870;2022-09-13T13:43:57;12.27;;;2.10;;
65463;SDS011;52063;45.110;9.870;2022-09-13T13:46:24;4.43;;;1.98;;
65463;SDS011;52063;45.110;9.870;2022-09-13T13:48:50;11.05;;;2.10;;
65463;SDS011;52063;45.110;9.870;2022-09-13T13:51:17;10.87;;;2.57;;
65463;SDS011;52063;45.110;9.870;2022-09-13T13:53:44;8.23;;;2.00;;
65463;SDS011;52063;45.110;9.870;2022-09-13T13:56:15;6.87;;;2.00;;
65463;SDS011;52063;45.110;9.870;2022-09-13T13:58:46;6.93;;;1.90;;
65463;SDS011;52063;45.110;9.870;2022-09-13T14:01:13;4.30;;;1.98;;
65463;SDS011;52063;45.110;9.870;2022-09-13T14:03:48;10.27;;;2.28;;
65463;SDS011;52063;45.110;9.870;2022-09-13T14:06:37;7.35;;;1.70;;
65463;SDS011;52063;45.110;9.870;2022-09-13T14:09:02;5.53;;;1.80;;
65463;SDS011;52063;45.110;9.870;2022-09-13T14:17:57;13.15;;;1.70;;
65463;SDS011;52063;45.110;9.870;2022-09-13T14:20:23;9.57;;;2.05;;
65463;SDS011;52063;45.110;9.870;2022-09-13T14:22:49;7.50;;;1.80;;
65463;SDS011;52063;45.110;9.870;2022-09-13T14:27:43;6.67;;;2.27;;
65463;SDS011;52063;45.110;9.870;2022-09-13T14:32:44;6.93;;;2.13;;
65463;SDS011;52063;45.110;9.870;2022-09-13T14:35:22;6.38;;;2.15;;
65463;SDS011;52063;45.110;9.870;2022-09-13T14:37:48;8.98;;;2.42;;
65463;SDS011;52063;45.110;9.870;2022-09-13T14:42:42;8.77;;;2.23;;
65463;SDS011;52063;45.110;9.870;2022-09-13T14:45:12;5.95;;;1.80;;
65463;SDS011;52063;45.110;9.870;2022-09-13T14:48:00;6.10;;;2.00;;
65463;SDS011;52063;45.110;9.870;2022-09-13T14:50:24;8.60;;;1.80;;
65463;SDS011;52063;45.110;9.870;2022-09-13T14:52:58;4.90;;;3.10;;
65463;SDS011;52063;45.110;9.870;2022-09-13T14:55:26;17.67;;;2.22;;
65463;SDS011;52063;45.110;9.870;2022-09-13T14:57:54;10.40;;;2.45;;
65463;SDS011;52063;45.110;9.870;2022-09-13T15:00:22;10.93;;;2.20;;
65463;SDS011;52063;45.110;9.870;2022-09-13T15:02:50;8.63;;;1.75;;
65463;SDS011;52063;45.110;9.870;2022-09-13T15:05:17;4.75;;;1.98;;
65463;SDS011;52063;45.110;9.870;2022-09-13T15:07:43;8.75;;;1.98;;
65463;SDS011;52063;45.110;9.870;2022-09-13T15:12:37;8.93;;;2.00;;
65463;SDS011;52063;45.110;9.870;2022-09-13T15:20:19;14.55;;;1.83;;
65463;SDS011;52063;45.110;9.870;2022-09-13T15:22:46;9.07;;;2.20;;
65463;SDS011;52063;45.110;9.870;2022-09-13T15:25:45;9.65;;;2.05;;
65463;SDS011;52063;45.110;9.870;2022-09-13T15:28:04;7.82;;;2.20;;
65463;SDS011;52063;45.110;9.870;2022-09-13T15:30:30;7.80;;;1.70;;
65463;SDS011;52063;45.110;9.870;2022-09-13T15:35:51;7.80;;;1.75;;
65463;SDS011;52063;45.110;9.870;2022-09-13T15:38:27;5.13;;;1.92;;
65463;SDS011;52063;45.110;9.870;2022-09-13T15:43:36;4.07;;;1.80;;
65463;SDS011;52063;45.110;9.870;2022-09-13T15:46:02;9.37;;;1.70;;
65463;SDS011;52063;45.110;9.870;2022-09-13T15:48:28;4.43;;;1.75;;
65463;SDS011;52063;45.110;9.870;2022-09-13T15:51:02;3.97;;;1.70;;
65463;SDS011;52063;45.110;9.870;2022-09-13T15:53:28;8.35;;;1.85;;
65463;SDS011;52063;45.110;9.870;2022-09-13T15:55:54;6.20;;;1.90;;
65463;SDS011;52063;45.110;9.870;2022-09-13T15:58:19;4.83;;;1.80;;
65463;SDS011;52063;45.110;9.870;2022-09-13T16:00:44;5.67;;;1.90;;
65463;SDS011;52063;45.110;9.870;2022-09-13T16:03:10;6.20;;;1.97;;
65463;SDS011;52063;45.110;9.870;2022-09-13T16:05:35;6.38;;;2.05;;
65463;SDS011;52063;45.110;9.870;2022-09-13T16:08:00;11.27;;;2.10;;
65463;SDS011;52063;45.110;9.870;2022-09-13T16:10:26;5.30;;;1.80;;
65463;SDS011;52063;45.110;9.870;2022-09-13T16:12:52;4.05;;;1.70;;
65463;SDS011;52063;45.110;9.870;2022-09-13T16:15:19;7.78;;;2.17;;
65463;SDS011;52063;45.110;9.870;2022-09-13T16:17:44;7.23;;;2.10;;
65463;SDS011;52063;45.110;9.870;2022-09-13T16:20:13;5.40;;;1.60;;
65463;SDS011;52063;45.110;9.870;2022-09-13T16:22:38;4.60;;;2.00;;
65463;SDS011;52063;45.110;9.870;2022-09-13T16:25:04;4.90;;;1.73;;
65463;SDS011;52063;45.110;9.870;2022-09-13T16:27:29;6.85;;;2.00;;
65463;SDS011;52063;45.110;9.870;2022-09-13T16:29:55;6.82;;;2.22;;
65463;SDS011;52063;45.110;9.870;2022-09-13T16:32:21;3.77;;;1.50;;
65463;SDS011;52063;45.110;9.870;2022-09-13T16:34:46;7.47;;;1.80;;
65463;SDS011;52063;45.110;9.870;2022-09-13T16:37:15;5.00;;;1.90;;
65463;SDS011;52063;45.110;9.870;2022-09-13T16:39:41;3.78;;;1.90;;
65463;SDS011;52063;45.110;9.870;2022-09-13T16:42:06;6.73;;;1.70;;
65463;SDS011;52063;45.110;9.870;2022-09-13T16:44:32;8.63;;;2.00;;
65463;SDS011;52063;45.110;9.870;2022-09-13T16:46:57;7.47;;;1.90;;
65463;SDS011;52063;45.110;9.870;2022-09-13T16:49:23;7.03;;;2.10;;
65463;SDS011;52063;45.110;9.870;2022-09-13T16:51:48;11.02;;;2.03;;
65463;SDS011;52063;45.110;9.870;2022-09-13T16:54:14;3.80;;;1.73;;
65463;SDS011;52063;45.110;9.870;2022-09-13T16:56:39;3.50;;;1.80;;
65463;SDS011;52063;45.110;9.870;2022-09-13T16:59:05;7.00;;;1.70;;
65463;SDS011;52063;45.110;9.870;2022-09-13T17:01:30;7.57;;;1.63;;
65463;SDS011;52063;45.110;9.870;2022-09-13T17:03:56;5.07;;;1.70;;
65463;SDS011;52063;45.110;9.870;2022-09-13T17:06:22;7.35;;;1.58;;
65463;SDS011;52063;45.110;9.870;2022-09-13T17:08:50;5.47;;;2.00;;
65463;SDS011;52063;45.110;9.870;2022-09-13T17:11:17;12.33;;;2.10;;
65463;SDS011;52063;45.110;9.870;2022-09-13T17:13:42;6.65;;;2.08;;
65463;SDS011;52063;45.110;9.870;2022-09-13T17:16:25;7.20;;;1.90;;
65463;SDS011;52063;45.110;9.870;2022-09-13T17:18:52;12.77;;;1.90;;
65463;SDS011;52063;45.110;9.870;2022-09-13T17:21:17;8.88;;;2.25;;
65463;SDS011;52063;45.110;9.870;2022-09-13T17:23:43;5.93;;;1.80;;
65463;SDS011;52063;45.110;9.870;2022-09-13T17:26:09;10.47;;;2.03;;
65463;SDS011;52063;45.110;9.870;2022-09-13T17:28:35;6.93;;;1.88;;
65463;SDS011;52063;45.110;9.870;2022-09-13T17:31:01;8.70;;;1.80;;
65463;SDS011;52063;45.110;9.870;2022-09-13T17:33:26;6.97;;;1.65;;
65463;SDS011;52063;45.110;9.870;2022-09-13T17:36:01;9.50;;;2.17;;
65463;SDS011;52063;45.110;9.870;2022-09-13T17:38:27;15.07;;;2.28;;
65463;SDS011;52063;45.110;9.870;2022-09-13T17:41:02;6.97;;;1.83;;
65463;SDS011;52063;45.110;9.870;2022-09-13T17:43:28;7.13;;;2.30;;
65463;SDS011;52063;45.110;9.870;2022-09-13T17:45:53;12.40;;;2.57;;
65463;SDS011;52063;45.110;9.870;2022-09-13T17:48:19;7.88;;;2.05;;
65463;SDS011;52063;45.110;9.870;2022-09-13T17:50:44;5.03;;;2.10;;
65463;SDS011;52063;45.110;9.870;2022-09-13T17:53:10;7.77;;;2.00;;
65463;SDS011;52063;45.110;9.870;2022-09-13T17:55:44;8.40;;;2.00;;
65463;SDS011;52063;45.110;9.870;2022-09-13T17:58:10;8.20;;;2.20;;
65463;SDS011;52063;45.110;9.870;2022-09-13T18:00:35;14.47;;;2.63;;
65463;SDS011;52063;45.110;9.870;2022-09-13T18:03:00;13.37;;;2.40;;
65463;SDS011;52063;45.110;9.870;2022-09-13T18:05:26;4.87;;;2.27;;